Time;durP1;ratioP1;P1;durP2;ratioP2;P2;SDS_P1;SDS_P2;PMS_P1;PMS_P2;Temp;Humidity;BMP_temperature;BMP_pressure;BME280_temperature;BME280_humidity;BME280_pressure;Samples;Min_cycle;Max_cycle;Signal;HPM_P1;HPM_P2
2023/12/04 00:01:48;;;;;;;32.55;11.63;;;;;;;;;;4890666;29;20059;-77
2023/12/04 00:04:18;;;;;;;36.17;12.43;;;;;;;;;;4889894;29;20055;-77
2023/12/04 00:06:47;;;;;;;48.05;12.20;;;;;;;;;;4899305;29;20148;-77
2023/12/04 00:09:16;;;;;;;55.22;15.63;;;;;;;;;;4891148;29;20055;-77
2023/12/04 00:11:45;;;;;;;52.13;16.27;;;;;;;;;;4890542;29;20063;-78
2023/12/04 00:14:14;;;;;;;73.55;23.88;;;;;;;;;;4894155;29;20059;-77
2023/12/04 00:16:42;;;;;;;72.05;23.10;;;;;;;;;;4894408;29;20134;-77
2023/12/04 00:19:11;;;;;;;44.92;17.70;;;;;;;;;;4888180;29;20060;-75
2023/12/04 00:21:41;;;;;;;53.38;18.95;;;;;;;;;;4878898;29;20115;-74
2023/12/04 00:24:10;;;;;;;39.53;14.77;;;;;;;;;;4871859;29;20059;-75
2023/12/04 00:26:39;;;;;;;37.42;12.80;;;;;;;;;;4883907;29;20776;-75
2023/12/04 00:29:07;;;;;;;30.58;10.32;;;;;;;;;;4882108;29;20110;-75
2023/12/04 00:31:36;;;;;;;26.13;9.40;;;;;;;;;;4883313;29;20068;-74
2023/12/04 00:34:05;;;;;;;30.58;10.70;;;;;;;;;;4882195;29;20720;-75
2023/12/04 00:36:34;;;;;;;25.50;10.73;;;;;;;;;;4879533;29;20902;-75
2023/12/04 00:39:05;;;;;;;35.88;12.25;;;;;;;;;;4880158;29;20056;-75
2023/12/04 00:41:34;;;;;;;51.45;15.57;;;;;;;;;;4878798;29;20186;-75
2023/12/04 00:44:04;;;;;;;43.83;15.13;;;;;;;;;;4880612;29;20451;-75
2023/12/04 00:46:33;;;;;;;34.05;14.20;;;;;;;;;;4886201;29;20056;-75
2023/12/04 00:49:02;;;;;;;29.98;11.02;;;;;;;;;;4879633;29;20082;-75
2023/12/04 00:51:31;;;;;;;22.45;9.07;;;;;;;;;;4904055;29;20068;-74
2023/12/04 00:53:59;;;;;;;25.92;8.38;;;;;;;;;;4886506;29;20062;-75
2023/12/04 00:56:29;;;;;;;22.70;7.35;;;;;;;;;;4878808;29;20739;-76
2023/12/04 00:58:58;;;;;;;30.10;9.65;;;;;;;;;;4881109;29;20059;-75
2023/12/04 01:01:27;;;;;;;27.77;10.70;;;;;;;;;;4879071;29;20048;-75
2023/12/04 01:03:56;;;;;;;27.00;10.05;;;;;;;;;;4878484;29;20066;-75
2023/12/04 01:06:25;;;;;;;26.98;9.48;;;;;;;;;;4888390;29;21500;-74
2023/12/04 01:08:54;;;;;;;25.50;9.07;;;;;;;;;;4888712;29;20146;-75
2023/12/04 01:11:22;;;;;;;25.02;9.70;;;;;;;;;;4876216;29;20059;-75
2023/12/04 01:13:52;;;;;;;27.48;9.60;;;;;;;;;;4872983;29;20142;-76
2023/12/04 01:16:21;;;;;;;23.38;9.00;;;;;;;;;;4871181;29;20052;-74
2023/12/04 01:18:50;;;;;;;24.38;9.60;;;;;;;;;;4870590;29;20052;-75
2023/12/04 01:21:18;;;;;;;26.00;9.68;;;;;;;;;;4866720;29;20892;-75
2023/12/04 01:23:47;;;;;;;24.27;9.82;;;;;;;;;;4880028;29;20056;-75
2023/12/04 01:26:16;;;;;;;24.70;9.45;;;;;;;;;;4879718;29;20178;-75
2023/12/04 01:28:44;;;;;;;32.15;11.20;;;;;;;;;;4885753;29;20048;-76
2023/12/04 01:31:15;;;;;;;26.08;9.35;;;;;;;;;;4894651;29;20063;-77
2023/12/04 01:33:43;;;;;;;28.02;10.00;;;;;;;;;;4901290;29;20091;-77
2023/12/04 01:36:12;;;;;;;35.75;11.95;;;;;;;;;;4895305;29;20055;-77
2023/12/04 01:38:41;;;;;;;49.33;15.85;;;;;;;;;;4901084;29;20060;-77
2023/12/04 01:41:09;;;;;;;60.90;18.60;;;;;;;;;;4891557;29;20064;-77
2023/12/04 01:43:38;;;;;;;43.70;15.73;;;;;;;;;;4898267;29;20157;-77
2023/12/04 01:46:08;;;;;;;47.05;15.57;;;;;;;;;;4899653;29;20131;-77
2023/12/04 01:48:39;;;;;;;34.30;12.18;;;;;;;;;;4897837;29;20075;-77
2023/12/04 01:51:09;;;;;;;30.13;11.70;;;;;;;;;;4892152;29;20071;-77
2023/12/04 01:53:40;;;;;;;34.13;11.45;;;;;;;;;;4890919;29;20064;-77
2023/12/04 01:56:10;;;;;;;31.02;10.60;;;;;;;;;;4881976;29;20052;-77
2023/12/04 01:58:39;;;;;;;29.15;10.55;;;;;;;;;;4889863;29;20048;-77
2023/12/04 02:01:08;;;;;;;25.20;9.02;;;;;;;;;;4891850;29;20081;-77
2023/12/04 02:03:37;;;;;;;24.75;8.50;;;;;;;;;;4906294;29;20048;-77
2023/12/04 02:06:08;;;;;;;23.88;8.15;;;;;;;;;;4907262;29;20410;-77
2023/12/04 02:08:37;;;;;;;26.25;9.27;;;;;;;;;;4899439;29;20161;-77
2023/12/04 02:11:06;;;;;;;27.23;9.55;;;;;;;;;;4904600;29;20071;-77
2023/12/04 02:13:35;;;;;;;28.27;11.13;;;;;;;;;;4915063;29;20056;-77
2023/12/04 02:16:06;;;;;;;27.92;9.63;;;;;;;;;;4889650;29;20143;-77
2023/12/04 02:18:35;;;;;;;23.80;8.70;;;;;;;;;;4880175;29;20055;-77
2023/12/04 02:21:05;;;;;;;23.52;8.48;;;;;;;;;;4891174;29;20531;-76
2023/12/04 02:23:35;;;;;;;19.52;8.00;;;;;;;;;;4898579;29;20060;-77
2023/12/04 02:26:11;;;;;;;23.38;9.23;;;;;;;;;;4893630;29;20130;-76
2023/12/04 02:28:39;;;;;;;25.30;8.52;;;;;;;;;;4890195;29;20058;-77
2023/12/04 02:31:09;;;;;;;24.80;8.60;;;;;;;;;;4883019;29;20072;-77
2023/12/04 02:33:38;;;;;;;20.88;7.47;;;;;;;;;;4897289;29;20060;-77
2023/12/04 02:36:07;;;;;;;22.27;7.47;;;;;;;;;;4906496;29;20147;-76
2023/12/04 02:38:36;;;;;;;23.60;8.25;;;;;;;;;;4891703;29;20197;-77
2023/12/04 02:41:06;;;;;;;25.17;9.45;;;;;;;;;;4882354;29;20572;-77
2023/12/04 02:43:36;;;;;;;22.83;8.18;;;;;;;;;;4898033;29;20048;-77
2023/12/04 02:46:05;;;;;;;21.38;8.23;;;;;;;;;;4890006;29;20492;-77
2023/12/04 02:48:34;;;;;;;23.60;8.65;;;;;;;;;;4898036;29;20599;-75
2023/12/04 02:51:03;;;;;;;20.85;7.63;;;;;;;;;;4876111;29;20813;-76
2023/12/04 02:53:32;;;;;;;20.42;8.15;;;;;;;;;;4876639;29;20700;-75
2023/12/04 02:56:01;;;;;;;21.70;8.50;;;;;;;;;;4884911;29;20067;-76
2023/12/04 02:58:33;;;;;;;29.02;10.07;;;;;;;;;;4886375;29;20532;-76
2023/12/04 03:01:02;;;;;;;32.10;10.65;;;;;;;;;;4890086;29;20043;-74
2023/12/04 03:03:31;;;;;;;23.45;9.57;;;;;;;;;;4885707;29;20044;-76
2023/12/04 03:06:00;;;;;;;20.27;8.93;;;;;;;;;;4888242;29;20051;-75
2023/12/04 03:08:29;;;;;;;27.70;9.73;;;;;;;;;;4883531;29;20079;-75
2023/12/04 03:10:57;;;;;;;34.33;11.25;;;;;;;;;;4882436;29;20502;-75
2023/12/04 03:13:26;;;;;;;29.75;10.65;;;;;;;;;;4876007;29;20062;-75
2023/12/04 03:15:56;;;;;;;29.92;9.98;;;;;;;;;;4877843;29;20048;-76
2023/12/04 03:18:25;;;;;;;32.45;10.82;;;;;;;;;;4876993;29;20056;-75
2023/12/04 03:20:55;;;;;;;31.08;11.18;;;;;;;;;;4890790;29;20304;-75
2023/12/04 03:23:23;;;;;;;27.58;9.80;;;;;;;;;;4879934;29;20064;-75
2023/12/04 03:25:52;;;;;;;24.52;9.57;;;;;;;;;;4876880;29;20135;-75
2023/12/04 03:28:21;;;;;;;32.90;11.15;;;;;;;;;;4875666;29;20052;-75
2023/12/04 03:30:50;;;;;;;28.65;10.40;;;;;;;;;;4894968;29;20056;-76
2023/12/04 03:33:20;;;;;;;31.35;11.23;;;;;;;;;;4894950;29;20052;-77
2023/12/04 03:35:49;;;;;;;26.20;10.63;;;;;;;;;;4882083;29;20839;-75
2023/12/04 03:38:17;;;;;;;32.58;11.80;;;;;;;;;;4882575;29;20049;-75
2023/12/04 03:40:46;;;;;;;38.47;13.98;;;;;;;;;;4882205;29;20063;-76
2023/12/04 03:43:15;;;;;;;35.75;14.93;;;;;;;;;;4879105;29;20060;-75
2023/12/04 03:45:43;;;;;;;33.45;14.57;;;;;;;;;;4882012;29;20055;-76
2023/12/04 03:48:12;;;;;;;25.48;9.88;;;;;;;;;;4880270;29;20166;-75
2023/12/04 03:50:42;;;;;;;27.25;8.60;;;;;;;;;;4887100;29;20167;-75
2023/12/04 03:53:11;;;;;;;23.73;9.18;;;;;;;;;;4890082;29;20564;-75
2023/12/04 03:55:39;;;;;;;26.40;9.25;;;;;;;;;;4869189;29;20055;-75
2023/12/04 03:58:08;;;;;;;22.35;8.82;;;;;;;;;;4880461;29;20056;-77
2023/12/04 04:00:40;;;;;;;22.90;8.50;;;;;;;;;;4899098;29;20052;-77
2023/12/04 04:03:10;;;;;;;;;;;;;;;;;;4891958;29;20115;-77
2023/12/04 04:05:38;;;;;;;20.23;8.32;;;;;;;;;;4906098;29;19967;-77
2023/12/04 04:08:09;;;;;;;21.95;8.35;;;;;;;;;;4891632;29;20486;-76
2023/12/04 04:10:38;;;;;;;26.13;9.13;;;;;;;;;;4891485;29;20060;-77
2023/12/04 04:13:06;;;;;;;23.85;9.57;;;;;;;;;;4896696;29;20815;-77
2023/12/04 04:15:35;;;;;;;20.23;8.05;;;;;;;;;;4888192;29;20060;-77
2023/12/04 04:18:04;;;;;;;27.33;8.95;;;;;;;;;;4880001;29;20060;-77
2023/12/04 04:20:33;;;;;;;21.85;8.52;;;;;;;;;;4880030;29;20230;-77
2023/12/04 04:23:02;;;;;;;24.83;8.85;;;;;;;;;;4880934;29;22646;-76
2023/12/04 04:25:32;;;;;;;23.38;8.68;;;;;;;;;;4890985;29;20150;-76
2023/12/04 04:28:01;;;;;;;24.92;8.23;;;;;;;;;;4881445;29;20059;-77
2023/12/04 04:30:30;;;;;;;22.73;9.07;;;;;;;;;;4890209;29;20067;-77
2023/12/04 04:32:59;;;;;;;24.50;8.82;;;;;;;;;;4889629;29;20056;-77
2023/12/04 04:35:28;;;;;;;25.88;9.18;;;;;;;;;;4890168;29;20184;-77
2023/12/04 04:37:57;;;;;;;26.45;8.93;;;;;;;;;;4888675;29;23451;-76
2023/12/04 04:40:26;;;;;;;24.38;9.68;;;;;;;;;;4888573;29;20164;-77
2023/12/04 04:42:56;;;;;;;33.40;12.52;;;;;;;;;;4888628;29;20091;-77
2023/12/04 04:45:25;;;;;;;36.13;11.63;;;;;;;;;;4895210;29;20068;-76
2023/12/04 04:47:54;;;;;;;39.38;14.32;;;;;;;;;;4898903;29;20476;-76
2023/12/04 04:50:23;;;;;;;46.42;14.48;;;;;;;;;;4895696;29;20048;-77
2023/12/04 04:52:51;;;;;;;39.25;14.38;;;;;;;;;;4888381;29;22453;-77
2023/12/04 04:55:20;;;;;;;37.28;14.00;;;;;;;;;;4891240;29;20052;-77
2023/12/04 04:58:10;;;;;;;39.95;13.27;;;;;;;;;;4887238;29;20037;-77
2023/12/04 05:00:39;;;;;;;41.60;13.95;;;;;;;;;;4887383;29;20131;-77
2023/12/04 05:03:08;;;;;;;47.67;17.10;;;;;;;;;;4893562;29;20068;-77
2023/12/04 05:05:37;;;;;;;50.55;17.40;;;;;;;;;;4912604;29;20058;-76
2023/12/04 05:08:06;;;;;;;43.15;14.57;;;;;;;;;;4878642;29;22540;-77
2023/12/04 05:10:34;;;;;;;37.05;13.55;;;;;;;;;;4897862;29;20066;-76
2023/12/04 05:13:03;;;;;;;51.03;16.65;;;;;;;;;;4886320;29;20419;-76
2023/12/04 05:15:33;;;;;;;50.08;15.48;;;;;;;;;;4890073;29;20119;-76
2023/12/04 05:18:02;;;;;;;43.78;15.70;;;;;;;;;;4884987;29;20059;-76
2023/12/04 05:20:31;;;;;;;45.75;16.08;;;;;;;;;;4879761;29;20052;-76
2023/12/04 05:23:00;;;;;;;46.63;15.05;;;;;;;;;;4879483;29;20083;-76
2023/12/04 05:25:28;;;;;;;39.88;15.25;;;;;;;;;;4881038;29;20052;-76
2023/12/04 05:28:05;;;;;;;36.30;14.02;;;;;;;;;;4877696;29;20059;-76
2023/12/04 05:30:35;;;;;;;30.25;12.40;;;;;;;;;;4886204;29;20071;-76
2023/12/04 05:33:04;;;;;;;45.88;14.05;;;;;;;;;;4880548;29;20052;-76
2023/12/04 05:35:34;;;;;;;39.53;15.70;;;;;;;;;;4876874;29;20060;-76
2023/12/04 05:38:03;;;;;;;77.45;24.70;;;;;;;;;;4894181;29;20032;-76
2023/12/04 05:40:32;;;;;;;47.00;15.55;;;;;;;;;;4877811;29;20066;-76
2023/12/04 05:43:00;;;;;;;37.72;12.57;;;;;;;;;;4879122;29;20076;-76
2023/12/04 05:45:29;;;;;;;33.15;11.68;;;;;;;;;;4885301;29;21912;-76
2023/12/04 05:47:59;;;;;;;28.55;9.65;;;;;;;;;;4876786;29;20055;-76
2023/12/04 05:50:28;;;;;;;85.45;27.92;;;;;;;;;;4876525;29;20058;-76
2023/12/04 05:52:57;;;;;;;47.60;17.23;;;;;;;;;;4882518;29;20077;-76
2023/12/04 05:55:25;;;;;;;30.98;12.05;;;;;;;;;;4880202;29;20536;-76
2023/12/04 05:57:54;;;;;;;25.35;11.02;;;;;;;;;;4886266;29;20072;-76
2023/12/04 06:00:23;;;;;;;25.20;9.93;;;;;;;;;;4882250;29;20047;-76
2023/12/04 06:02:56;;;;;;;23.88;9.35;;;;;;;;;;4892269;29;20441;-76
2023/12/04 06:05:27;;;;;;;111.05;28.35;;;;;;;;;;4890892;29;20055;-76
2023/12/04 06:07:57;;;;;;;92.40;28.25;;;;;;;;;;4887644;29;20147;-77
2023/12/04 06:10:26;;;;;;;69.03;20.17;;;;;;;;;;4876794;29;20056;-76
2023/12/04 06:12:55;;;;;;;43.63;14.85;;;;;;;;;;4879239;29;20808;-77
2023/12/04 06:15:24;;;;;;;48.45;15.82;;;;;;;;;;4886760;29;20056;-77
2023/12/04 06:17:55;;;;;;;31.52;12.35;;;;;;;;;;4880246;29;20067;-78
2023/12/04 06:20:24;;;;;;;34.60;12.35;;;;;;;;;;4887402;29;22506;-77
2023/12/04 06:22:54;;;;;;;28.70;12.40;;;;;;;;;;4891596;29;20922;-77
2023/12/04 06:25:23;;;;;;;41.78;15.45;;;;;;;;;;4883818;29;20130;-77
2023/12/04 06:27:52;;;;;;;44.13;16.52;;;;;;;;;;4892141;29;20496;-77
2023/12/04 06:30:21;;;;;;;40.50;15.77;;;;;;;;;;4890744;29;20736;-77
2023/12/04 06:32:50;;;;;;;34.58;13.23;;;;;;;;;;4880633;29;20052;-77
2023/12/04 06:35:19;;;;;;;40.08;15.60;;;;;;;;;;4876810;29;20052;-77
2023/12/04 06:37:49;;;;;;;55.33;20.42;;;;;;;;;;4885962;29;20247;-77
2023/12/04 06:40:20;;;;;;;47.88;16.50;;;;;;;;;;4870612;29;20070;-78
2023/12/04 06:42:49;;;;;;;37.05;16.90;;;;;;;;;;4865775;29;20059;-78
2023/12/04 06:45:20;;;;;;;37.40;14.02;;;;;;;;;;4898587;29;20056;-78
2023/12/04 06:47:50;;;;;;;34.95;12.82;;;;;;;;;;4881082;29;20828;-77
2023/12/04 06:50:19;;;;;;;30.02;11.00;;;;;;;;;;4879051;29;20052;-77
2023/12/04 06:52:47;;;;;;;32.45;13.25;;;;;;;;;;4887068;29;20059;-77
2023/12/04 06:55:16;;;;;;;29.85;12.73;;;;;;;;;;4893026;29;20183;-78
2023/12/04 06:57:46;;;;;;;40.75;13.18;;;;;;;;;;4893568;29;20065;-77
2023/12/04 07:00:16;;;;;;;55.88;18.65;;;;;;;;;;4892841;29;20063;-77
2023/12/04 07:02:50;;;;;;;86.38;29.10;;;;;;;;;;4878522;29;20539;-76
2023/12/04 07:05:19;;;;;;;96.38;30.50;;;;;;;;;;4888445;29;20061;-77
2023/12/04 07:07:48;;;;;;;118.25;34.88;;;;;;;;;;4882807;29;20052;-76
2023/12/04 07:10:17;;;;;;;117.07;33.33;;;;;;;;;;4899778;29;20405;-77
2023/12/04 07:12:47;;;;;;;57.28;22.30;;;;;;;;;;4888502;29;20951;-77
2023/12/04 07:15:15;;;;;;;32.08;13.77;;;-3.40;99.90;;;;;;4891817;29;20052;-77
2023/12/04 07:17:44;;;;;;;38.42;13.60;;;-3.50;99.90;;;;;;4887605;29;20203;-77
2023/12/04 07:20:12;;;;;;;34.53;13.88;;;-3.20;99.90;;;;;;4881763;29;20175;-77
2023/12/04 07:22:41;;;;;;;36.10;14.18;;;-3.50;99.90;;;;;;4907128;29;20048;-77
2023/12/04 07:25:10;;;;;;;37.33;15.23;;;-2.70;99.90;;;;;;4896458;29;20062;-77
2023/12/04 07:27:41;;;;;;;50.05;16.42;;;-2.70;99.90;;;;;;4887522;29;20061;-77
2023/12/04 07:30:12;;;;;;;42.38;14.82;;;-3.30;99.90;;;;;;4890355;29;20056;-77
2023/12/04 07:32:40;;;;;;;28.65;11.80;;;-3.20;99.90;;;;;;4884464;29;20818;-78
2023/12/04 07:35:09;;;;;;;36.72;13.07;;;-2.90;99.90;;;;;;4875516;29;20108;-78
2023/12/04 07:37:38;;;;;;;30.50;12.05;;;-3.10;99.90;;;;;;4884207;29;20056;-78
2023/12/04 07:40:09;;;;;;;33.17;12.32;;;-2.90;99.90;;;;;;4897333;29;20044;-77
2023/12/04 07:42:38;;;;;;;32.45;13.05;;;-2.90;99.90;;;;;;4898111;29;20078;-78
2023/12/04 07:45:08;;;;;;;34.83;12.07;;;-2.90;99.90;;;;;;4908118;29;20094;-78
2023/12/04 07:47:38;;;;;;;34.75;11.88;;;-2.80;99.90;;;;;;4884287;29;20060;-78
2023/12/04 07:50:08;;;;;;;28.63;10.90;;;-2.90;99.90;;;;;;4882535;29;22561;-78
2023/12/04 07:52:36;;;;;;;33.40;11.35;;;-2.70;99.90;;;;;;4883785;29;20147;-78
2023/12/04 07:55:05;;;;;;;30.23;11.23;;;-2.40;99.90;;;;;;4895772;29;20059;-78
2023/12/04 07:57:34;;;;;;;38.42;12.38;;;-2.60;99.90;;;;;;4889819;29;20048;-78
2023/12/04 08:00:02;;;;;;;30.60;10.98;;;-2.50;99.90;;;;;;4888183;29;20068;-78
2023/12/04 08:02:31;;;;;;;28.55;10.05;;;-2.50;99.90;;;;;;4890426;29;20048;-78
2023/12/04 08:05:01;;;;;;;31.17;9.73;;;-2.40;99.90;;;;;;4880787;29;20059;-78
2023/12/04 08:07:30;;;;;;;26.17;9.68;;;-2.10;99.90;;;;;;4898571;29;20067;-77
2023/12/04 08:09:58;;;;;;;33.10;11.43;;;-2.40;99.90;;;;;;4900620;29;20352;-77
2023/12/04 08:12:27;;;;;;;28.13;11.05;;;-2.20;99.90;;;;;;4894707;29;20117;-77
2023/12/04 08:14:55;;;;;;;59.35;20.10;;;-2.50;99.90;;;;;;4892177;29;20052;-77
2023/12/04 08:17:24;;;;;;;57.22;21.58;;;-2.50;99.90;;;;;;4894169;29;20087;-78
2023/12/04 08:19:52;;;;;;;35.53;13.52;;;-2.20;99.90;;;;;;4883392;29;20044;-78
2023/12/04 08:22:22;;;;;;;36.10;12.48;;;-1.70;99.90;;;;;;4893752;29;20047;-77
2023/12/04 08:24:51;;;;;;;35.70;11.30;;;-2.40;99.90;;;;;;4887446;29;22744;-78
2023/12/04 08:27:20;;;;;;;36.20;11.43;;;-1.90;99.90;;;;;;4894500;29;20063;-78
2023/12/04 08:29:48;;;;;;;27.33;11.15;;;-2.00;99.90;;;;;;4882421;29;20927;-78
2023/12/04 08:32:16;;;;;;;31.25;10.75;;;-1.70;99.90;;;;;;4894691;29;20083;-78
2023/12/04 08:34:45;;;;;;;35.05;11.23;;;-2.00;99.90;;;;;;4879453;29;20424;-78
2023/12/04 08:37:13;;;;;;;29.40;11.95;;;-2.00;99.90;;;;;;4889761;29;20055;-78
2023/12/04 08:39:43;;;;;;;35.13;13.50;;;-1.50;99.90;;;;;;4895662;29;20060;-76
2023/12/04 08:42:12;;;;;;;38.90;12.82;;;-1.30;99.90;;;;;;4891767;29;20056;-77
2023/12/04 08:44:50;;;;;;;39.45;14.10;;;-1.70;99.90;;;;;;4891905;29;20127;-77
2023/12/04 08:47:18;;;;;;;42.75;15.85;;;-1.50;99.90;;;;;;4892225;29;22679;-77
2023/12/04 08:49:47;;;;;;;38.00;13.65;;;-1.00;99.90;;;;;;4892503;29;20390;-77
2023/12/04 08:52:17;;;;;;;35.17;13.40;;;-1.10;99.90;;;;;;4888745;29;20056;-77
2023/12/04 08:54:47;;;;;;;32.85;12.35;;;-1.30;99.90;;;;;;4892195;29;20518;-77
2023/12/04 08:57:15;;;;;;;31.20;11.13;;;-1.40;99.90;;;;;;4897974;29;20060;-77
2023/12/04 08:59:43;;;;;;;35.97;12.57;;;-1.40;99.90;;;;;;4893680;29;20058;-77
2023/12/04 09:02:12;;;;;;;33.72;11.52;;;-1.20;99.90;;;;;;4884690;29;20579;-77
2023/12/04 09:04:43;;;;;;;31.45;12.07;;;-1.20;99.90;;;;;;4881484;29;20062;-77
2023/12/04 09:07:12;;;;;;;35.05;9.75;;;-1.20;99.90;;;;;;4898710;29;20055;-77
2023/12/04 09:10:02;;;;;;;31.95;11.38;;;-1.00;99.90;;;;;;4895031;29;20992;-77
2023/12/04 09:12:41;;;;;;;38.83;11.60;;;-0.90;99.90;;;;;;4883914;29;20064;-77
2023/12/04 09:15:10;;;;;;;32.13;10.10;;;-0.60;99.90;;;;;;4888456;29;20142;-77
2023/12/04 09:17:39;;;;;;;34.55;12.07;;;-0.90;99.90;;;;;;4898525;29;20127;-77
2023/12/04 09:20:07;;;;;;;26.17;10.70;;;-1.00;99.90;;;;;;4900142;29;20473;-77
2023/12/04 09:22:38;;;;;;;25.95;8.95;;;0.20;99.90;;;;;;4914005;29;20126;-77
2023/12/04 09:25:21;;;;;;;33.45;10.02;;;-0.90;99.90;;;;;;4881520;29;20064;-77
2023/12/04 09:27:49;;;;;;;25.27;8.48;;;0.20;99.90;;;;;;4880139;29;20187;-77
2023/12/04 09:30:18;;;;;;;20.58;9.13;;;-0.10;99.90;;;;;;4892353;29;20143;-76
2023/12/04 09:32:47;;;;;;;27.02;9.10;;;-0.80;99.90;;;;;;4874737;29;20056;-78
2023/12/04 09:35:18;;;;;;;22.73;7.70;;;-0.80;99.90;;;;;;4857994;29;20068;-76
2023/12/04 09:37:50;;;;;;;20.05;7.00;;;-0.70;99.90;;;;;;4896149;29;20067;-78
2023/12/04 09:40:19;;;;;;;21.20;7.97;;;-0.30;99.90;;;;;;4888385;29;20052;-78
2023/12/04 09:42:49;;;;;;;20.30;7.40;;;0.60;99.90;;;;;;4881803;29;20055;-76
2023/12/04 09:45:20;;;;;;;18.35;6.55;;;-0.50;99.90;;;;;;4894691;29;20063;-78
2023/12/04 09:47:49;;;;;;;18.15;6.65;;;-0.50;99.90;;;;;;4891870;29;20091;-77
2023/12/04 09:50:22;;;;;;;15.50;6.22;;;-0.20;99.90;;;;;;4909588;29;20155;-79
2023/12/04 09:52:53;;;;;;;15.68;5.47;;;0.00;99.90;;;;;;4901419;29;20056;-79
2023/12/04 09:55:22;;;;;;;15.90;6.72;;;-0.40;99.90;;;;;;4906258;28;20051;-79
2023/12/04 09:57:53;;;;;;;15.48;6.60;;;-1.50;99.90;;;;;;4898468;29;20055;-79
2023/12/04 10:00:23;;;;;;;13.05;5.25;;;-0.40;99.90;;;;;;4901484;29;20052;-79
2023/12/04 10:02:52;;;;;;;13.65;5.90;;;0.00;99.90;;;;;;4902499;29;20048;-79
2023/12/04 10:05:22;;;;;;;16.58;6.03;;;-0.20;99.90;;;;;;4889569;29;20525;-79
2023/12/04 10:07:53;;;;;;;12.00;5.70;;;-0.20;99.90;;;;;;4908131;29;20063;-79
2023/12/04 10:10:22;;;;;;;13.10;5.28;;;0.60;99.90;;;;;;4919409;29;20076;-79
2023/12/04 10:12:52;;;;;;;12.10;5.18;;;1.30;99.90;;;;;;4898203;29;20079;-79
2023/12/04 10:15:21;;;;;;;12.68;5.28;;;0.80;99.90;;;;;;4893769;29;20056;-79
2023/12/04 10:17:51;;;;;;;16.83;6.93;;;0.50;99.90;;;;;;4891144;29;20389;-80
2023/12/04 10:20:21;;;;;;;10.18;4.35;;;0.90;99.90;;;;;;4912509;28;20961;-80
2023/12/04 10:22:54;;;;;;;12.60;5.60;;;-1.30;99.90;;;;;;4910376;29;20048;-80
2023/12/04 10:25:25;;;;;;;13.43;5.57;;;1.60;99.90;;;;;;4896516;29;20063;-80
2023/12/04 10:27:56;;;;;;;13.35;5.60;;;0.60;99.90;;;;;;4911361;29;20590;-79
2023/12/04 10:30:26;;;;;;;16.83;6.03;;;0.30;99.90;;;;;;4886143;29;20554;-79
2023/12/04 10:33:00;;;;;;;11.98;4.90;;;3.00;99.90;;;;;;4897075;29;20072;-79
2023/12/04 10:35:31;;;;;;;8.48;3.92;;;1.80;99.90;;;;;;4886889;29;22329;-79
2023/12/04 10:38:00;;;;;;;12.80;4.75;;;1.90;99.90;;;;;;4889924;29;20086;-79
2023/12/04 10:40:35;;;;;;;11.43;4.40;;;0.30;99.90;;;;;;4883703;29;20444;-79
2023/12/04 10:43:15;;;;;;;10.73;4.32;;;0.70;99.90;;;;;;4905617;29;20483;-79
2023/12/04 10:45:45;;;;;;;9.60;4.60;;;0.70;99.90;;;;;;4881483;29;20570;-79
2023/12/04 10:48:14;;;;;;;10.05;3.83;;;0.70;99.90;;;;;;4886575;29;20404;-78
2023/12/04 10:50:45;;;;;;;16.90;6.68;;;0.80;99.90;;;;;;4882289;29;20196;-79
2023/12/04 10:53:14;;;;;;;16.08;6.53;;;0.60;99.90;;;;;;4910010;29;20076;-78
2023/12/04 10:55:46;;;;;;;13.45;6.10;;;1.10;99.90;;;;;;4882236;29;20190;-78
2023/12/04 10:58:17;;;;;;;;;;;0.80;99.90;;;;;;4896404;29;20064;-79
2023/12/04 11:00:48;;;;;;;11.50;4.32;;;0.80;99.90;;;;;;4922811;29;20013;-76
2023/12/04 11:03:22;;;;;;;10.82;4.70;;;1.00;99.90;;;;;;4914407;29;20825;-76
2023/12/04 11:05:57;;;;;;;7.82;3.88;;;1.40;99.90;;;;;;4914142;29;20051;-77
2023/12/04 11:08:28;;;;;;;11.75;5.07;;;1.10;99.90;;;;;;4910487;29;20107;-77
2023/12/04 11:11:03;;;;;;;10.45;3.58;;;1.00;99.90;;;;;;4902658;29;20044;-76
2023/12/04 11:13:36;;;;;;;8.68;3.92;;;0.90;99.90;;;;;;4880213;29;20672;-77
2023/12/04 11:16:13;;;;;;;9.75;4.00;;;1.00;99.90;;;;;;4898775;29;20055;-76
2023/12/04 11:18:45;;;;;;;11.75;4.80;;;0.90;99.90;;;;;;4892873;29;20745;-76
2023/12/04 11:21:16;;;;;;;8.70;4.77;;;1.80;99.90;;;;;;4896867;29;20980;-78
2023/12/04 11:23:48;;;;;;;11.82;4.85;;;1.00;99.90;;;;;;4888243;29;20798;-76
2023/12/04 11:26:17;;;;;;;10.88;4.55;;;1.20;99.90;;;;;;4900260;29;20100;-77
2023/12/04 11:28:50;;;;;;;9.88;4.13;;;1.20;99.90;;;;;;4885029;29;20067;-77
2023/12/04 11:31:21;;;;;;;6.50;3.13;;;1.20;99.90;;;;;;4898050;29;20052;-76
2023/12/04 11:33:52;;;;;;;7.28;3.13;;;2.00;99.90;;;;;;4902492;29;20048;-76
2023/12/04 11:36:25;;;;;;;8.07;3.60;;;1.20;99.90;;;;;;4899323;29;20139;-76
2023/12/04 11:38:54;;;;;;;7.60;3.08;;;1.40;99.90;;;;;;4889275;29;22505;-77
2023/12/04 11:41:25;;;;;;;8.27;3.42;;;1.40;99.90;;;;;;4888431;29;20138;-75
2023/12/04 11:44:00;;;;;;;8.90;3.85;;;1.30;99.90;;;;;;4894523;29;20048;-77
2023/12/04 11:46:30;;;;;;;7.05;3.35;;;1.50;99.90;;;;;;4892594;29;20131;-77
2023/12/04 11:49:39;;;;;;;7.22;2.95;;;1.70;99.90;;;;;;4886027;29;20060;-77
2023/12/04 11:52:09;;;;;;;7.88;2.72;;;;;;;;;;4887220;29;20048;-76
2023/12/04 11:55:03;;;;;;;7.95;3.38;;;;;;;;;;4876210;29;20791;-77
2023/12/04 11:57:34;;;;;;;7.85;3.65;;;;;;;;;;4923480;29;20611;-76
2023/12/04 12:00:14;;;;;;;9.07;4.05;;;;;;;;;;4893683;29;20223;-77
2023/12/04 12:02:48;;;;;;;8.82;3.85;;;;;;;;;;4892736;29;20060;-77
2023/12/04 12:05:39;;;;;;;10.02;4.45;;;;;;;;;;4886649;29;21003;-77
2023/12/04 12:08:09;;;;;;;8.05;3.28;;;;;;;;;;4889624;29;20428;-75
2023/12/04 12:10:38;;;;;;;10.77;3.25;;;;;;;;;;4892896;29;20056;-77
2023/12/04 12:13:06;;;;;;;8.00;3.53;;;;;;;;;;4882343;29;20062;-78
2023/12/04 12:15:36;;;;;;;10.25;3.83;;;;;;;;;;4881039;29;20067;-77
2023/12/04 12:18:07;;;;;;;11.63;3.20;;;;;;;;;;4882489;29;22633;-76
2023/12/04 12:20:38;;;;;;;9.45;4.07;;;;;;;;;;4881208;29;20504;-79
2023/12/04 12:23:08;;;;;;;9.98;3.78;;;;;;;;;;4886929;29;20083;-77
2023/12/04 12:25:38;;;;;;;9.75;4.20;;;;;;;;;;4876843;29;20139;-77
2023/12/04 12:28:07;;;;;;;9.30;3.95;;;;;;;;;;4886812;29;20191;-78
2023/12/04 12:30:38;;;;;;;9.63;3.75;;;;;;;;;;4880378;29;20068;-77
2023/12/04 12:33:08;;;;;;;9.07;3.55;;;;;;;;;;4880324;29;20056;-77
2023/12/04 12:35:37;;;;;;;7.85;4.00;;;;;;;;;;4876608;29;20056;-77
2023/12/04 12:38:07;;;;;;;7.43;3.22;;;;;;;;;;4874592;29;20056;-77
2023/12/04 12:40:36;;;;;;;11.38;4.68;;;;;;;;;;4879706;29;20047;-78
2023/12/04 12:43:06;;;;;;;13.40;4.35;;;;;;;;;;4879338;29;20155;-77
2023/12/04 12:45:44;;;;;;;8.63;3.80;;;;;;;;;;4879902;29;20052;-78
2023/12/04 12:48:12;;;;;;;10.10;3.63;;;;;;;;;;4889995;29;20064;-78
2023/12/04 12:50:41;;;;;;;11.07;4.20;;;;;;;;;;4878866;29;20125;-76
2023/12/04 12:53:10;;;;;;;8.70;3.83;;;;;;;;;;4877917;29;20048;-77
2023/12/04 12:55:39;;;;;;;11.52;4.47;;;;;;;;;;4886493;29;20953;-78
2023/12/04 12:58:08;;;;;;;8.70;4.47;;;;;;;;;;4876262;29;20060;-77
2023/12/04 13:00:37;;;;;;;13.35;4.82;;;;;;;;;;4886752;29;20056;-77
2023/12/04 13:03:07;;;;;;;9.68;3.38;;;;;;;;;;4877400;29;20164;-77
2023/12/04 13:05:36;;;;;;;12.93;4.82;;;;;;;;;;4886355;29;20048;-78
2023/12/04 13:08:05;;;;;;;9.93;4.00;;;;;;;;;;4877743;29;20107;-78
2023/12/04 13:10:34;;;;;;;9.15;4.38;;;;;;;;;;4877433;29;20547;-77
2023/12/04 13:13:02;;;;;;;12.15;4.72;;;;;;;;;;4887397;29;20183;-77
2023/12/04 13:15:31;;;;;;;9.27;4.07;;;;;;;;;;4894263;29;20194;-78
2023/12/04 13:18:00;;;;;;;11.60;4.88;;;;;;;;;;4880427;29;20111;-78
2023/12/04 13:20:30;;;;;;;11.07;4.47;;;;;;;;;;4877274;29;20051;-77
2023/12/04 13:22:59;;;;;;;11.57;3.72;;;;;;;;;;4880468;29;20040;-77
2023/12/04 13:25:32;;;;;;;11.55;4.63;;;;;;;;;;4877440;29;20051;-78
2023/12/04 13:28:01;;;;;;;12.27;5.00;;;;;;;;;;4884349;29;20555;-78
2023/12/04 13:30:29;;;;;;;8.63;3.42;;;;;;;;;;4872944;29;20056;-77
2023/12/04 13:32:58;;;;;;;11.35;4.57;;;;;;;;;;4868605;29;20044;-78
2023/12/04 13:35:27;;;;;;;10.68;4.57;;;;;;;;;;4872789;29;20058;-79
2023/12/04 13:37:59;;;;;;;8.00;2.70;;;;;;;;;;4880314;29;20129;-77
2023/12/04 13:40:31;;;;;;;11.20;5.55;;;;;;;;;;4896466;29;20512;-78
2023/12/04 13:45:47;;;;;;;9.35;3.08;;;;;;;;;;4878595;29;19974;-77
2023/12/04 13:48:16;;;;;;;12.45;4.50;;;;;;;;;;4870730;29;20131;-78
2023/12/04 13:50:45;;;;;;;10.48;4.65;;;;;;;;;;4893042;29;20067;-78
2023/12/04 13:53:19;;;;;;;13.90;5.53;;;;;;;;;;4886579;29;20863;-77
2023/12/04 13:56:10;;;;;;;13.23;5.15;;;;;;;;;;4895490;29;20062;-78
2023/12/04 13:58:39;;;;;;;10.57;4.75;;;;;;;;;;4877723;29;20054;-78
2023/12/04 14:01:13;;;;;;;13.15;6.05;;;;;;;;;;4878674;29;20159;-78
2023/12/04 14:03:42;;;;;;;12.15;4.90;;;;;;;;;;4879119;29;20056;-78
2023/12/04 14:06:11;;;;;;;16.55;6.07;;;;;;;;;;4890681;29;20055;-78